Pagina principale
METAR-TAF:

METAR-TAF

Aeroporti :

Bad Vöslau, Austria

latitudine: 47-57-52N, longitudine: 016-15-34E, altezza: 233 m

Osservazione

Il bollettino è stato emesso 2 ore e 41 minuti fa, alle 18:00 UTC
Vento 12 kt da ovest
Temperature 19°C
Umidità 52%
Pressione

METAR: LOAV 251800Z 28012KT 40KM FEW040CU 19/09

Ora: 22:41 (20:41 UTC)

Previsione

Il bollettino è stato emesso 6 ore e 16 minuti fa, alle 14:25 UTC
Previsione valida dal 25 alle 14 UTC al 25 alle 21 UTC
Vento 14 kt da ovest
Visibilità 10 km o più
Nubi sparse ad un'altezza di 4000 ft
Nuvoloso ad un'altezza di 30000 ft
Temporaneamente
dal 25 alle 14 UTC al 25 alle 19 UTC
Vento 20 kt da ovest/nord-ovest con raffiche fino a 35 kt
Nuvoloso ad un'altezza di 4000 ft
Nuvoloso ad un'altezza di 30000 ft

TAF: LOAV 251425Z 2514/2521 27014KT 9999 SCT040 BKN300 TEMPO 2514/2519 29020G35KT BKN040 BKN300

Osservazioni e previsioni meteorologiche di più di 4000 aeroporti (messaggi METAR e TAF).

Le stazioni disponibili sono rappresentate dai dischi gialli e rossi sulla carta.

Puntare il mouse per vedere il nome della stazione.

Clicca sopra per visualizzare le osservazioni e previsioni meteorologiche.

Per cambiare la mappa : fare clic sui pulsanti verdi con una croce nera per ingrandire, il pulsante verde con un trattino per diminuire, o sulla freccia verde per le mappe adiacenti.


METAR-TAF: